Strait of Belle Isle: Past 24 Hour Conditions

 

Twillingate

02:30 PM NDT 23 September 2014
This table is a summary of hourly weather conditions for the past 24 hours.
Date / Time
(NDT)
Wind(knots) Conditions Visibility(km) Pressure(kPa) Air tempC) Relative humidity(%) Dew pointC) Humidex
23 September 2014
14:30 WSW 22 gust 29 N/A N/A 100.7 14 60 6 *
13:30 WSW 25 gust 32 N/A N/A 100.6 13 62 6 *
12:30 WSW 29 gust 39 N/A N/A 100.6 13 66 6 *
11:30 WSW 28 gust 38 N/A N/A 100.5 13 70 8 *
10:30 WSW 24 gust 36 N/A N/A 100.4 14 66 8 *
9:30 SW 21 gust 31 N/A N/A 100.3 14 69 9 *
8:30 SW 21 gust 29 N/A N/A 100.1 14 73 9 *
7:30 SW 21 gust 29 N/A N/A 100.1 15 77 11 *
6:30 SW 17 gust 25 N/A N/A 100.0 15 80 12 *
5:30 SW 18 gust 27 N/A N/A 99.9 16 83 13 *
4:30 SSW 17 gust 27 N/A N/A 99.9 16 83 13 *
3:30 SSW 15 gust 27 N/A N/A 99.9 16 83 13 *
2:30 SSW 15 gust 25 N/A N/A 99.9 16 85 14 *
1:30 SW 18 gust 29 N/A N/A 100.0 17 87 15 *
0:30 SSW 14 gust 23 N/A N/A 99.9 18 89 16 *
22 September 2014
23:30 SSW 21 gust 29 N/A N/A 99.9 18 89 16 *
22:30 SSW 19 gust 30 N/A N/A 100.0 17 89 16 *
21:30 SW 18 gust 27 N/A N/A 99.9 18 90 16 *
20:30 SW 17 gust 27 N/A N/A 99.8 18 93 17 *
19:30 SSW 20 gust 28 N/A N/A 99.7 19 91 18 *
18:30 SSW 20 gust 31 N/A N/A 99.6 19 92 18 *
17:30 SSW 19 gust 33 N/A N/A 99.5 19 92 18 *
16:30 SSW 16 gust 30 N/A N/A 99.7 19 90 18 *
15:30 S 20 gust 34 N/A N/A 99.8 21 78 17 27
14:30 S 16 gust 24 N/A N/A 100.0 20 80 16 *
 
Map of Atlantic - Newfoundland marine weather areas Southwestern Grand Banks - 44138 Banquereau - 44139 Tail of the Bank - 44140 Nickerson Bank - 44251 Northeast Burgeo Bank - 44255 Blanc-Sablon Airport Cap Whittle Chevery Natashquan Airport Heath Point Miscou Island Grand Étang Ingonish Beach North Mountain St.Paul Island J.A. Douglas McCurdy Sydney Airport Charlottetown Airport East Point North Cape Argentia Bonavista Burgeo Cape Race Corner Brook Daniel's Harbour Englee Ferolle Point La Scie Port aux Basques Rocky Harbour Sagona Island St. Anthony Airport St. John's Int'l Airport St. Lawrence Stephenville Airport Twillingate Winterland Wreckhouse Cartwright Airport Mary's Harbour Grates Cove Pool's Island Marticot Island Long Pond Îles de la Madeleine Airport
Legend: buoyBuoy land stationLand Station